Time;durP1;ratioP1;P1;durP2;ratioP2;P2;SDS_P1;SDS_P2;PMS_P1;PMS_P2;Temp;Humidity;BMP_temperature;BMP_pressure;BME280_temperature;BME280_humidity;BME280_pressure;Samples;Min_cycle;Max_cycle;Signal;HPM_P1;HPM_P2
2022/07/21 00:03:40;;;;;;;11.07;5.33;;;;;;;23.28;45.20;100378.13;30746285;28;96801;-68
2022/07/21 00:18:40;;;;;;;8.82;5.45;;;;;;;22.94;45.89;100365.38;30743013;28;100567;-68
2022/07/21 00:33:41;;;;;;;10.33;5.53;;;;;;;22.71;46.19;100351.97;30742373;28;97285;-68
2022/07/21 00:48:41;;;;;;;8.27;5.15;;;;;;;22.67;46.68;100348.09;30740594;28;96846;-67
2022/07/21 01:03:42;;;;;;;7.95;5.75;;;;;;;22.59;47.05;100354.75;30739027;28;96766;-67
2022/07/21 01:18:42;;;;;;;10.23;6.43;;;;;;;22.49;47.36;100355.41;30737288;28;96738;-69
2022/07/21 01:33:43;;;;;;;8.10;6.07;;;;;;;22.16;47.70;100370.53;30735293;28;96699;-69
2022/07/21 01:48:44;;;;;;;12.00;6.57;;;;;;;21.37;49.21;100376.50;30734211;28;96819;-67
2022/07/21 02:03:45;;;;;;;12.90;7.00;;;;;;;20.76;50.48;100376.72;30732325;28;96712;-69
2022/07/21 02:18:46;;;;;;;11.03;7.03;;;;;;;20.33;51.96;100358.84;30732288;28;97237;-68
2022/07/21 02:33:46;;;;;;;12.52;6.80;;;;;;;20.05;53.31;100357.56;30731011;28;97411;-67
2022/07/21 02:48:47;;;;;;;11.23;6.65;;;;;;;19.71;54.66;100354.44;30729404;28;96688;-67
2022/07/21 03:03:47;;;;;;;11.88;7.10;;;;;;;19.48;55.19;100338.91;30729672;28;97404;-67
2022/07/21 03:18:47;;;;;;;11.00;7.63;;;;;;;19.36;56.04;100334.25;30747816;28;96704;-67
2022/07/21 03:33:48;;;;;;;13.43;7.15;;;;;;;19.30;56.94;100339.72;30746449;28;97988;-68
2022/07/21 03:48:48;;;;;;;12.10;7.72;;;;;;;19.30;57.44;100345.13;30743806;28;97382;-67
2022/07/21 04:03:48;;;;;;;12.32;8.93;;;;;;;19.49;57.93;100363.00;30740894;28;97477;-67
2022/07/21 04:18:49;;;;;;;11.88;7.78;;;;;;;19.87;58.22;100374.66;30740145;28;97268;-68
2022/07/21 04:33:49;;;;;;;11.57;7.30;;;;;;;20.18;57.36;100375.50;30738403;28;96903;-69
2022/07/21 04:48:49;;;;;;;14.57;8.90;;;;;;;20.53;56.95;100381.03;30737886;28;115447;-68
2022/07/21 05:03:50;;;;;;;19.40;11.30;;;;;;;20.96;56.63;100387.22;30734192;28;96754;-68
2022/07/21 05:18:50;;;;;;;17.38;10.02;;;;;;;21.42;56.01;100385.56;30734043;28;96829;-68
2022/07/21 05:33:51;;;;;;;13.57;9.50;;;;;;;21.87;55.13;100392.25;30734035;28;96768;-68
2022/07/21 05:48:54;;;;;;;15.37;9.93;;;;;;;22.57;53.73;100395.72;30732257;28;96686;-68
2022/07/21 06:03:54;;;;;;;21.70;10.50;;;;;;;23.31;52.55;100369.47;30730488;28;96929;-68
2022/07/21 06:18:54;;;;;;;16.25;7.97;;;;;;;24.19;50.48;100384.13;30728418;28;96717;-69
2022/07/21 06:33:55;;;;;;;12.52;7.88;;;;;;;25.29;48.26;100375.50;30727780;28;96744;-70
2022/07/21 06:48:55;;;;;;;19.83;7.85;;;;;;;25.98;46.06;100364.63;30745241;28;97187;-70
2022/07/21 07:03:55;;;;;;;15.15;7.55;;;;;;;27.06;43.75;100381.13;30743337;28;97494;-70
2022/07/21 07:18:56;;;;;;;16.15;7.30;;;;;;;28.18;40.77;100384.56;30745043;28;97847;-70
2022/07/21 07:33:59;;;;;;;14.23;6.70;;;;;;;28.87;38.71;100383.81;30745489;28;96998;-69
2022/07/21 07:48:59;;;;;;;12.70;5.67;;;;;;;29.89;36.45;100359.09;30742359;28;97398;-69
2022/07/21 08:04:00;;;;;;;12.20;5.07;;;;;;;30.85;33.92;100351.53;30739065;28;97111;-67
2022/07/21 08:19:00;;;;;;;9.35;5.00;;;;;;;31.56;32.01;100349.34;30733877;28;97217;-68
2022/07/21 08:34:00;;;;;;;9.52;4.35;;;;;;;31.83;29.40;100353.19;30729008;28;97135;-69
2022/07/21 08:49:02;;;;;;;7.03;4.25;;;;;;;32.67;29.08;100342.69;30738539;28;97336;-67
2022/07/21 09:04:26;;;;;;;5.73;3.53;;;;;;;33.79;26.60;100331.59;30737971;28;96722;-69
2022/07/21 09:19:33;;;;;;;6.97;3.70;;;;;;;34.53;24.94;100321.47;30737468;28;96741;-68
2022/07/21 09:34:34;;;;;;;7.43;3.40;;;;;;;35.00;23.96;100297.75;30726808;28;96926;-67
2022/07/21 09:49:37;;;;;;;7.97;3.10;;;;;;;35.78;22.17;100301.19;30721582;28;113128;-71
2022/07/21 10:04:38;;;;;;;9.00;3.03;;;;;;;36.03;21.14;100268.84;30718470;28;98840;-69
2022/07/21 10:20:09;;;;;;;5.53;2.95;;;;;;;36.80;21.23;100279.47;30716948;28;98550;-70
2022/07/21 10:35:28;;;;;;;3.77;2.57;;;;;;;37.54;19.63;100265.53;30716914;28;96795;-69
2022/07/21 10:50:31;;;;;;;5.37;2.73;;;;;;;37.97;19.24;100267.94;30718141;28;97320;-68
2022/07/21 11:05:33;;;;;;;4.53;2.50;;;;;;;38.16;18.78;100253.38;30717564;28;98015;-69
2022/07/21 11:20:34;;;;;;;4.97;2.43;;;;;;;38.32;17.95;100247.84;30716494;28;97006;-68
2022/07/21 11:35:37;;;;;;;6.07;2.22;;;;;;;37.81;17.89;100237.31;30732322;28;97153;-68
2022/07/21 11:50:38;;;;;;;;;;;;;;;37.97;16.85;100218.69;30734139;28;97474;-71
2022/07/21 12:05:39;;;;;;;4.80;2.00;;;;;;;38.00;16.67;100200.50;30731286;28;97188;-69
2022/07/21 12:20:42;;;;;;;6.23;2.20;;;;;;;38.00;16.54;100172.69;30731799;28;97482;-69
2022/07/21 12:35:46;;;;;;;3.73;2.30;;;;;;;38.36;15.99;100180.00;30728837;28;96987;-69
2022/07/21 12:51:06;;;;;;;8.00;2.83;;;;;;;38.35;16.06;100160.91;30737458;28;97410;-69
2022/07/21 13:06:07;;;;;;;3.10;2.17;;;;;;;38.06;15.54;100155.38;30737179;28;97641;-70
2022/07/21 13:21:07;;;;;;;7.00;2.60;;;;;;;37.64;15.87;100132.81;30733780;28;96749;-70
2022/07/21 13:36:09;;;;;;;4.05;2.20;;;;;;;38.08;15.58;100125.25;30728789;28;97564;-68
2022/07/21 13:51:10;;;;;;;5.83;2.50;;;;;;;37.85;15.09;100099.22;30718292;28;97574;-69
2022/07/21 14:06:11;;;;;;;7.80;2.33;;;;;;;37.70;15.13;100093.28;30719693;28;97593;-67
2022/07/21 14:21:13;;;;;;;9.07;2.57;;;;;;;37.51;15.19;100087.59;30726247;28;98669;-67
2022/07/21 14:36:13;;;;;;;6.55;2.75;;;;;;;37.28;15.78;100071.50;30727510;28;97413;-68
2022/07/21 14:51:13;;;;;;;6.13;2.83;;;;;;;36.87;15.95;100068.75;30720086;28;108127;-70
2022/07/21 15:06:14;;;;;;;5.05;2.80;;;;;;;36.62;16.90;100059.69;30729404;28;97192;-75
2022/07/21 15:21:14;;;;;;;8.43;3.03;;;;;;;36.46;17.77;100047.66;30739422;28;97463;-68
2022/07/21 15:36:15;;;;;;;6.70;2.83;;;;;;;36.39;16.79;100031.63;30789338;28;100071;-66
2022/07/21 15:51:15;;;;;;;8.48;3.65;;;;;;;36.01;18.03;100033.59;30798094;28;97294;-67
2022/07/21 16:06:16;;;;;;;13.85;3.17;;;;;;;35.56;17.27;100035.25;30796185;28;96810;-68
2022/07/21 16:21:17;;;;;;;8.60;3.47;;;;;;;35.15;18.75;100028.66;30759858;28;97110;-68
2022/07/21 16:36:17;;;;;;;7.30;3.10;;;;;;;34.77;19.19;100015.75;30734597;28;96854;-66
2022/07/21 16:51:19;;;;;;;10.60;2.90;;;;;;;34.74;19.57;100014.47;30733907;28;96986;-67
2022/07/21 17:06:19;;;;;;;9.87;3.30;;;;;;;34.35;20.32;100005.53;30735191;28;97546;-67
2022/07/21 17:21:19;;;;;;;10.15;4.00;;;;;;;33.86;21.96;100016.13;30733171;28;96829;-66
2022/07/21 17:36:20;;;;;;;10.68;3.83;;;;;;;33.42;22.37;100010.75;30729564;28;96749;-67
2022/07/21 17:51:20;;;;;;;20.38;6.97;;;;;;;33.11;23.04;100010.94;30726395;28;101311;-67
2022/07/21 18:06:22;;;;;;;10.75;4.07;;;;;;;32.41;24.25;99997.97;30731463;28;96866;-67
2022/07/21 18:21:22;;;;;;;11.83;5.20;;;;;;;31.81;25.84;100002.13;30729251;28;97463;-68
2022/07/21 18:36:23;;;;;;;9.25;4.75;;;;;;;31.32;27.35;100041.34;30736864;28;96878;-67
2022/07/21 18:51:26;;;;;;;12.00;6.50;;;;;;;31.16;29.89;100087.69;30750474;28;96898;-70
2022/07/21 19:06:27;;;;;;;10.77;5.60;;;;;;;30.69;31.41;100123.63;30747857;28;97019;-67
2022/07/21 19:21:27;;;;;;;8.13;5.07;;;;;;;30.09;32.99;100153.91;30761884;28;97571;-66
2022/07/21 19:36:28;;;;;;;8.40;5.00;;;;;;;29.39;34.83;100181.09;30744920;28;96894;-67
2022/07/21 19:51:28;;;;;;;10.13;5.00;;;;;;;28.68;36.64;100195.41;30742006;28;97823;-64
2022/07/21 20:06:29;;;;;;;11.35;5.55;;;;;;;28.19;38.90;100210.13;30741474;28;96701;-66
2022/07/21 20:21:29;;;;;;;9.07;4.43;;;;;;;27.91;40.16;100215.25;30741357;28;97479;-67
2022/07/21 20:36:30;;;;;;;10.90;5.05;;;;;;;27.47;41.50;100227.03;30739266;28;96766;-67
2022/07/21 20:51:31;;;;;;;6.60;5.47;;;;;;;26.92;42.33;100237.94;30738831;28;97453;-67
2022/07/21 21:06:31;;;;;;;7.78;5.60;;;;;;;26.32;43.54;100239.38;30734000;28;97076;-65
2022/07/21 21:21:31;;;;;;;6.45;4.65;;;;;;;26.07;44.35;100225.75;30723177;28;97127;-65
2022/07/21 21:36:32;;;;;;;8.07;4.57;;;;;;;26.18;44.43;100230.94;30727626;28;97396;-65
2022/07/21 21:51:32;;;;;;;6.70;4.35;;;;;;;26.46;43.66;100228.75;30734429;28;97025;-65
2022/07/21 22:06:32;;;;;;;6.47;4.30;;;;;;;26.49;43.46;100257.38;30732678;28;98001;-65
2022/07/21 22:21:33;;;;;;;6.95;4.50;;;;;;;26.39;43.49;100268.34;30731850;28;96746;-67
2022/07/21 22:36:34;;;;;;;7.53;4.80;;;;;;;26.35;43.64;100270.78;30729685;28;96904;-67
2022/07/21 22:51:34;;;;;;;6.45;3.95;;;;;;;26.28;43.85;100275.72;30729245;28;97133;-66
2022/07/21 23:06:34;;;;;;;6.18;4.18;;;;;;;26.35;43.83;100271.63;30728947;28;97779;-66
2022/07/21 23:21:35;;;;;;;5.63;4.32;;;;;;;26.51;43.93;100277.88;30733704;28;97821;-67
2022/07/21 23:36:35;;;;;;;6.97;4.13;;;;;;;26.39;43.94;100273.78;30747621;28;98820;-66
2022/07/21 23:51:36;;;;;;;8.18;4.60;;;;;;;26.32;44.24;100276.81;30744451;28;96816;-67
